sensor_id;sensor_type;location;lat;lon;timestamp;P1;durP1;ratioP1;P2;durP2;ratioP2
57889;SDS011;43707;50.184;18.966;2022-09-17T00:01:35;14.00;;;8.90;;
57889;SDS011;43707;50.184;18.966;2022-09-17T00:04:02;10.30;;;8.50;;
57889;SDS011;43707;50.184;18.966;2022-09-17T00:06:29;11.00;;;8.20;;
57889;SDS011;43707;50.184;18.966;2022-09-17T00:08:56;9.10;;;7.90;;
57889;SDS011;43707;50.184;18.966;2022-09-17T00:11:26;10.00;;;7.80;;
57889;SDS011;43707;50.184;18.966;2022-09-17T00:13:54;8.60;;;7.70;;
57889;SDS011;43707;50.184;18.966;2022-09-17T00:18:52;12.50;;;8.70;;
57889;SDS011;43707;50.184;18.966;2022-09-17T00:21:19;11.40;;;8.70;;
57889;SDS011;43707;50.184;18.966;2022-09-17T00:23:45;11.80;;;9.20;;
57889;SDS011;43707;50.184;18.966;2022-09-17T00:26:11;9.20;;;8.10;;
57889;SDS011;43707;50.184;18.966;2022-09-17T00:28:37;12.80;;;8.60;;
57889;SDS011;43707;50.184;18.966;2022-09-17T00:31:06;9.10;;;8.20;;
57889;SDS011;43707;50.184;18.966;2022-09-17T00:33:33;8.60;;;7.80;;
57889;SDS011;43707;50.184;18.966;2022-09-17T00:35:59;9.40;;;8.40;;
57889;SDS011;43707;50.184;18.966;2022-09-17T00:38:26;10.40;;;8.40;;
57889;SDS011;43707;50.184;18.966;2022-09-17T00:40:52;9.70;;;8.00;;
57889;SDS011;43707;50.184;18.966;2022-09-17T00:43:34;13.90;;;10.40;;
57889;SDS011;43707;50.184;18.966;2022-09-17T00:46:01;11.30;;;9.70;;
57889;SDS011;43707;50.184;18.966;2022-09-17T00:48:27;10.70;;;9.10;;
57889;SDS011;43707;50.184;18.966;2022-09-17T00:50:53;15.30;;;11.40;;
57889;SDS011;43707;50.184;18.966;2022-09-17T00:53:19;20.80;;;13.10;;
57889;SDS011;43707;50.184;18.966;2022-09-17T00:58:23;15.70;;;10.20;;
57889;SDS011;43707;50.184;18.966;2022-09-17T01:00:50;13.20;;;9.50;;
57889;SDS011;43707;50.184;18.966;2022-09-17T01:03:15;10.20;;;8.70;;
57889;SDS011;43707;50.184;18.966;2022-09-17T01:05:57;12.00;;;10.10;;
57889;SDS011;43707;50.184;18.966;2022-09-17T01:08:48;11.90;;;10.00;;
57889;SDS011;43707;50.184;18.966;2022-09-17T01:11:57;19.70;;;11.90;;
57889;SDS011;43707;50.184;18.966;2022-09-17T01:14:51;17.50;;;11.90;;
57889;SDS011;43707;50.184;18.966;2022-09-17T01:17:37;20.50;;;14.30;;
57889;SDS011;43707;50.184;18.966;2022-09-17T01:29:16;16.20;;;11.40;;
57889;SDS011;43707;50.184;18.966;2022-09-17T01:32:04;19.80;;;11.40;;
57889;SDS011;43707;50.184;18.966;2022-09-17T01:34:39;19.10;;;10.30;;
57889;SDS011;43707;50.184;18.966;2022-09-17T01:37:13;15.30;;;10.50;;
57889;SDS011;43707;50.184;18.966;2022-09-17T01:42:40;15.70;;;10.40;;
57889;SDS011;43707;50.184;18.966;2022-09-17T01:45:09;14.20;;;10.40;;
57889;SDS011;43707;50.184;18.966;2022-09-17T01:47:41;13.50;;;10.10;;
57889;SDS011;43707;50.184;18.966;2022-09-17T01:50:11;12.00;;;9.90;;
57889;SDS011;43707;50.184;18.966;2022-09-17T01:52:41;12.80;;;8.70;;
57889;SDS011;43707;50.184;18.966;2022-09-17T01:55:09;14.20;;;10.20;;
57889;SDS011;43707;50.184;18.966;2022-09-17T01:57:39;17.70;;;10.20;;
57889;SDS011;43707;50.184;18.966;2022-09-17T02:00:14;12.70;;;9.70;;
57889;SDS011;43707;50.184;18.966;2022-09-17T02:02:59;13.30;;;10.90;;
57889;SDS011;43707;50.184;18.966;2022-09-17T02:08:05;17.40;;;10.30;;
57889;SDS011;43707;50.184;18.966;2022-09-17T02:10:36;13.40;;;10.60;;
57889;SDS011;43707;50.184;18.966;2022-09-17T02:13:13;13.30;;;10.80;;
57889;SDS011;43707;50.184;18.966;2022-09-17T02:15:43;19.30;;;9.40;;
57889;SDS011;43707;50.184;18.966;2022-09-17T02:18:26;10.80;;;9.60;;
57889;SDS011;43707;50.184;18.966;2022-09-17T02:21:02;12.30;;;9.90;;
57889;SDS011;43707;50.184;18.966;2022-09-17T02:23:42;15.40;;;9.90;;
57889;SDS011;43707;50.184;18.966;2022-09-17T02:26:16;14.60;;;10.10;;
57889;SDS011;43707;50.184;18.966;2022-09-17T02:28:49;13.90;;;9.30;;
57889;SDS011;43707;50.184;18.966;2022-09-17T02:31:18;12.90;;;9.00;;
57889;SDS011;43707;50.184;18.966;2022-09-17T02:33:44;11.30;;;9.00;;
57889;SDS011;43707;50.184;18.966;2022-09-17T02:36:12;12.30;;;9.60;;
57889;SDS011;43707;50.184;18.966;2022-09-17T02:38:39;9.10;;;8.20;;
57889;SDS011;43707;50.184;18.966;2022-09-17T02:46:19;12.20;;;8.20;;
57889;SDS011;43707;50.184;18.966;2022-09-17T03:02:39;7.70;;;6.60;;
57889;SDS011;43707;50.184;18.966;2022-09-17T03:05:08;8.50;;;7.30;;
57889;SDS011;43707;50.184;18.966;2022-09-17T03:07:34;7.80;;;7.10;;
57889;SDS011;43707;50.184;18.966;2022-09-17T03:09:59;8.90;;;7.10;;
57889;SDS011;43707;50.184;18.966;2022-09-17T03:12:25;8.60;;;6.80;;
57889;SDS011;43707;50.184;18.966;2022-09-17T03:14:50;7.50;;;6.80;;
57889;SDS011;43707;50.184;18.966;2022-09-17T03:17:16;7.80;;;7.00;;
57889;SDS011;43707;50.184;18.966;2022-09-17T03:19:41;9.10;;;7.50;;
57889;SDS011;43707;50.184;18.966;2022-09-17T03:22:07;9.90;;;7.60;;
57889;SDS011;43707;50.184;18.966;2022-09-17T03:24:32;8.60;;;7.50;;
57889;SDS011;43707;50.184;18.966;2022-09-17T03:26:58;8.10;;;7.10;;
57889;SDS011;43707;50.184;18.966;2022-09-17T03:29:23;12.60;;;8.70;;
57889;SDS011;43707;50.184;18.966;2022-09-17T03:31:48;8.70;;;7.40;;
57889;SDS011;43707;50.184;18.966;2022-09-17T03:34:14;10.00;;;8.30;;
57889;SDS011;43707;50.184;18.966;2022-09-17T03:36:39;11.40;;;7.40;;
57889;SDS011;43707;50.184;18.966;2022-09-17T03:39:05;8.80;;;7.90;;
57889;SDS011;43707;50.184;18.966;2022-09-17T03:41:30;8.50;;;7.40;;
57889;SDS011;43707;50.184;18.966;2022-09-17T03:43:56;13.00;;;7.80;;
57889;SDS011;43707;50.184;18.966;2022-09-17T03:46:21;11.80;;;8.60;;
57889;SDS011;43707;50.184;18.966;2022-09-17T03:48:47;9.00;;;8.10;;
57889;SDS011;43707;50.184;18.966;2022-09-17T03:51:12;9.60;;;8.70;;
57889;SDS011;43707;50.184;18.966;2022-09-17T03:53:38;10.00;;;8.50;;
57889;SDS011;43707;50.184;18.966;2022-09-17T03:56:04;12.70;;;10.30;;
57889;SDS011;43707;50.184;18.966;2022-09-17T03:58:30;14.00;;;10.10;;
57889;SDS011;43707;50.184;18.966;2022-09-17T04:00:56;13.70;;;10.50;;
57889;SDS011;43707;50.184;18.966;2022-09-17T04:03:22;11.10;;;9.40;;
57889;SDS011;43707;50.184;18.966;2022-09-17T04:05:51;15.30;;;10.60;;
57889;SDS011;43707;50.184;18.966;2022-09-17T04:08:17;18.00;;;10.60;;
57889;SDS011;43707;50.184;18.966;2022-09-17T04:10:43;14.20;;;8.90;;
57889;SDS011;43707;50.184;18.966;2022-09-17T04:13:09;17.10;;;9.70;;
57889;SDS011;43707;50.184;18.966;2022-09-17T04:15:35;12.30;;;9.20;;
57889;SDS011;43707;50.184;18.966;2022-09-17T04:18:01;11.00;;;8.30;;
57889;SDS011;43707;50.184;18.966;2022-09-17T04:20:26;14.00;;;8.10;;
57889;SDS011;43707;50.184;18.966;2022-09-17T04:22:52;9.50;;;8.20;;
57889;SDS011;43707;50.184;18.966;2022-09-17T04:25:18;9.80;;;7.50;;
57889;SDS011;43707;50.184;18.966;2022-09-17T04:27:43;9.50;;;7.70;;
57889;SDS011;43707;50.184;18.966;2022-09-17T04:30:10;12.70;;;9.90;;
57889;SDS011;43707;50.184;18.966;2022-09-17T04:32:36;16.10;;;10.10;;
57889;SDS011;43707;50.184;18.966;2022-09-17T04:35:02;13.90;;;9.50;;
57889;SDS011;43707;50.184;18.966;2022-09-17T04:37:28;10.70;;;9.60;;
57889;SDS011;43707;50.184;18.966;2022-09-17T04:39:53;17.60;;;11.80;;
57889;SDS011;43707;50.184;18.966;2022-09-17T04:42:19;17.10;;;11.50;;
57889;SDS011;43707;50.184;18.966;2022-09-17T04:44:44;12.40;;;10.00;;
57889;SDS011;43707;50.184;18.966;2022-09-17T04:47:10;12.10;;;9.60;;
57889;SDS011;43707;50.184;18.966;2022-09-17T04:49:35;13.10;;;9.70;;
57889;SDS011;43707;50.184;18.966;2022-09-17T04:52:01;12.90;;;9.10;;
57889;SDS011;43707;50.184;18.966;2022-09-17T04:54:26;9.70;;;8.10;;
57889;SDS011;43707;50.184;18.966;2022-09-17T04:56:51;9.80;;;8.80;;
57889;SDS011;43707;50.184;18.966;2022-09-17T04:59:17;12.60;;;8.40;;
57889;SDS011;43707;50.184;18.966;2022-09-17T05:01:42;10.30;;;8.70;;
57889;SDS011;43707;50.184;18.966;2022-09-17T05:04:08;10.10;;;9.00;;
57889;SDS011;43707;50.184;18.966;2022-09-17T05:06:34;13.80;;;9.50;;
57889;SDS011;43707;50.184;18.966;2022-09-17T05:09:00;13.10;;;9.80;;
57889;SDS011;43707;50.184;18.966;2022-09-17T05:11:26;14.00;;;9.40;;
57889;SDS011;43707;50.184;18.966;2022-09-17T05:13:52;14.30;;;9.40;;
57889;SDS011;43707;50.184;18.966;2022-09-17T05:16:17;11.20;;;8.40;;
57889;SDS011;43707;50.184;18.966;2022-09-17T05:18:43;12.20;;;8.60;;
57889;SDS011;43707;50.184;18.966;2022-09-17T05:21:08;10.50;;;8.50;;
57889;SDS011;43707;50.184;18.966;2022-09-17T05:23:34;14.00;;;9.50;;
57889;SDS011;43707;50.184;18.966;2022-09-17T05:25:59;16.10;;;9.60;;
57889;SDS011;43707;50.184;18.966;2022-09-17T05:28:25;15.00;;;9.60;;
57889;SDS011;43707;50.184;18.966;2022-09-17T05:30:51;11.40;;;9.40;;
57889;SDS011;43707;50.184;18.966;2022-09-17T05:33:17;9.90;;;8.90;;
57889;SDS011;43707;50.184;18.966;2022-09-17T05:35:43;9.50;;;7.60;;
57889;SDS011;43707;50.184;18.966;2022-09-17T05:38:09;14.10;;;9.50;;
57889;SDS011;43707;50.184;18.966;2022-09-17T05:40:34;8.50;;;7.70;;
57889;SDS011;43707;50.184;18.966;2022-09-17T05:43:03;8.10;;;7.30;;
57889;SDS011;43707;50.184;18.966;2022-09-17T05:45:31;9.60;;;6.90;;
57889;SDS011;43707;50.184;18.966;2022-09-17T05:47:58;9.70;;;7.20;;
57889;SDS011;43707;50.184;18.966;2022-09-17T05:50:25;9.20;;;6.20;;
57889;SDS011;43707;50.184;18.966;2022-09-17T05:52:51;6.90;;;5.80;;
57889;SDS011;43707;50.184;18.966;2022-09-17T05:55:17;8.10;;;5.90;;
57889;SDS011;43707;50.184;18.966;2022-09-17T05:57:43;7.40;;;6.70;;
57889;SDS011;43707;50.184;18.966;2022-09-17T06:00:09;10.70;;;5.50;;
57889;SDS011;43707;50.184;18.966;2022-09-17T06:02:36;7.90;;;5.70;;
57889;SDS011;43707;50.184;18.966;2022-09-17T06:05:01;12.30;;;5.40;;
57889;SDS011;43707;50.184;18.966;2022-09-17T06:07:28;6.80;;;5.30;;
57889;SDS011;43707;50.184;18.966;2022-09-17T06:09:54;8.50;;;5.30;;
57889;SDS011;43707;50.184;18.966;2022-09-17T06:12:19;5.70;;;4.40;;
57889;SDS011;43707;50.184;18.966;2022-09-17T06:14:45;6.40;;;5.10;;
57889;SDS011;43707;50.184;18.966;2022-09-17T06:17:10;5.30;;;4.80;;
57889;SDS011;43707;50.184;18.966;2022-09-17T06:19:35;6.00;;;4.90;;
57889;SDS011;43707;50.184;18.966;2022-09-17T06:22:01;8.60;;;5.00;;
57889;SDS011;43707;50.184;18.966;2022-09-17T06:24:26;5.40;;;4.90;;
57889;SDS011;43707;50.184;18.966;2022-09-17T06:26:52;5.00;;;4.50;;
57889;SDS011;43707;50.184;18.966;2022-09-17T06:29:18;5.20;;;4.60;;
57889;SDS011;43707;50.184;18.966;2022-09-17T06:31:44;7.20;;;5.40;;
57889;SDS011;43707;50.184;18.966;2022-09-17T06:34:12;7.10;;;5.60;;
57889;SDS011;43707;50.184;18.966;2022-09-17T06:36:37;7.50;;;5.50;;
57889;SDS011;43707;50.184;18.966;2022-09-17T06:39:03;7.50;;;5.40;;
57889;SDS011;43707;50.184;18.966;2022-09-17T06:41:28;5.80;;;5.30;;
57889;SDS011;43707;50.184;18.966;2022-09-17T06:43:54;8.20;;;4.80;;
57889;SDS011;43707;50.184;18.966;2022-09-17T06:46:20;10.60;;;5.10;;
57889;SDS011;43707;50.184;18.966;2022-09-17T06:48:45;7.60;;;5.00;;
57889;SDS011;43707;50.184;18.966;2022-09-17T06:51:11;5.00;;;4.50;;
57889;SDS011;43707;50.184;18.966;2022-09-17T06:53:37;5.10;;;4.30;;
57889;SDS011;43707;50.184;18.966;2022-09-17T06:56:03;6.30;;;5.00;;
57889;SDS011;43707;50.184;18.966;2022-09-17T06:58:30;5.90;;;4.30;;
57889;SDS011;43707;50.184;18.966;2022-09-17T07:00:59;8.80;;;4.30;;
57889;SDS011;43707;50.184;18.966;2022-09-17T07:03:26;6.90;;;5.20;;
57889;SDS011;43707;50.184;18.966;2022-09-17T07:05:52;10.60;;;5.80;;
57889;SDS011;43707;50.184;18.966;2022-09-17T07:08:18;7.20;;;6.10;;
57889;SDS011;43707;50.184;18.966;2022-09-17T07:10:43;6.10;;;5.20;;
57889;SDS011;43707;50.184;18.966;2022-09-17T07:13:09;5.70;;;5.00;;
57889;SDS011;43707;50.184;18.966;2022-09-17T07:15:34;6.20;;;4.30;;
57889;SDS011;43707;50.184;18.966;2022-09-17T07:18:05;8.30;;;5.50;;
57889;SDS011;43707;50.184;18.966;2022-09-17T07:20:32;5.00;;;4.50;;
57889;SDS011;43707;50.184;18.966;2022-09-17T07:22:57;6.30;;;4.30;;
57889;SDS011;43707;50.184;18.966;2022-09-17T07:25:23;6.30;;;5.10;;
57889;SDS011;43707;50.184;18.966;2022-09-17T07:27:50;5.60;;;4.80;;
57889;SDS011;43707;50.184;18.966;2022-09-17T07:30:16;6.30;;;5.50;;
57889;SDS011;43707;50.184;18.966;2022-09-17T07:32:41;5.40;;;4.90;;
57889;SDS011;43707;50.184;18.966;2022-09-17T07:35:07;5.10;;;4.30;;
57889;SDS011;43707;50.184;18.966;2022-09-17T07:37:32;7.40;;;4.20;;
57889;SDS011;43707;50.184;18.966;2022-09-17T07:39:58;4.50;;;4.10;;
57889;SDS011;43707;50.184;18.966;2022-09-17T07:42:23;4.60;;;3.70;;
57889;SDS011;43707;50.184;18.966;2022-09-17T07:44:49;5.00;;;3.70;;
57889;SDS011;43707;50.184;18.966;2022-09-17T07:47:14;5.90;;;3.10;;
57889;SDS011;43707;50.184;18.966;2022-09-17T07:49:40;5.30;;;4.00;;
57889;SDS011;43707;50.184;18.966;2022-09-17T07:52:05;4.20;;;3.60;;
57889;SDS011;43707;50.184;18.966;2022-09-17T07:54:31;4.50;;;3.00;;
57889;SDS011;43707;50.184;18.966;2022-09-17T07:56:58;6.60;;;3.50;;
57889;SDS011;43707;50.184;18.966;2022-09-17T07:59:24;5.20;;;3.20;;
57889;SDS011;43707;50.184;18.966;2022-09-17T08:01:49;4.00;;;3.60;;
57889;SDS011;43707;50.184;18.966;2022-09-17T08:04:14;6.40;;;3.30;;
57889;SDS011;43707;50.184;18.966;2022-09-17T08:06:40;3.90;;;3.40;;
57889;SDS011;43707;50.184;18.966;2022-09-17T08:09:05;6.50;;;3.30;;
57889;SDS011;43707;50.184;18.966;2022-09-17T08:11:31;12.20;;;3.20;;
57889;SDS011;43707;50.184;18.966;2022-09-17T08:13:57;4.30;;;3.60;;
57889;SDS011;43707;50.184;18.966;2022-09-17T08:16:23;4.20;;;3.40;;
57889;SDS011;43707;50.184;18.966;2022-09-17T08:18:53;4.40;;;3.40;;
57889;SDS011;43707;50.184;18.966;2022-09-17T08:21:19;6.70;;;3.40;;
57889;SDS011;43707;50.184;18.966;2022-09-17T08:23:45;5.10;;;3.50;;
57889;SDS011;43707;50.184;18.966;2022-09-17T08:26:12;3.10;;;2.70;;
57889;SDS011;43707;50.184;18.966;2022-09-17T08:28:48;4.40;;;3.20;;
57889;SDS011;43707;50.184;18.966;2022-09-17T08:33:40;4.00;;;3.00;;
57889;SDS011;43707;50.184;18.966;2022-09-17T08:36:07;7.70;;;2.90;;
57889;SDS011;43707;50.184;18.966;2022-09-17T08:38:34;2.70;;;2.50;;
57889;SDS011;43707;50.184;18.966;2022-09-17T08:43:47;3.30;;;2.30;;
57889;SDS011;43707;50.184;18.966;2022-09-17T08:46:17;4.00;;;2.50;;
57889;SDS011;43707;50.184;18.966;2022-09-17T08:48:48;2.60;;;2.00;;
57889;SDS011;43707;50.184;18.966;2022-09-17T08:59:49;4.10;;;2.80;;
57889;SDS011;43707;50.184;18.966;2022-09-17T09:02:23;3.30;;;1.80;;
57889;SDS011;43707;50.184;18.966;2022-09-17T09:05:16;2.40;;;1.10;;
57889;SDS011;43707;50.184;18.966;2022-09-17T09:07:53;1.90;;;1.10;;
57889;SDS011;43707;50.184;18.966;2022-09-17T09:10:22;3.90;;;1.30;;
57889;SDS011;43707;50.184;18.966;2022-09-17T09:12:50;1.60;;;1.30;;
57889;SDS011;43707;50.184;18.966;2022-09-17T09:17:43;2.50;;;1.20;;
57889;SDS011;43707;50.184;18.966;2022-09-17T09:23:18;2.60;;;1.20;;
57889;SDS011;43707;50.184;18.966;2022-09-17T09:31:26;2.20;;;1.40;;
57889;SDS011;43707;50.184;18.966;2022-09-17T09:34:03;1.90;;;1.40;;
57889;SDS011;43707;50.184;18.966;2022-09-17T09:36:29;4.10;;;1.50;;
57889;SDS011;43707;50.184;18.966;2022-09-17T09:38:58;2.80;;;1.40;;
57889;SDS011;43707;50.184;18.966;2022-09-17T09:41:31;1.80;;;1.10;;
57889;SDS011;43707;50.184;18.966;2022-09-17T09:44:07;2.60;;;1.20;;
57889;SDS011;43707;50.184;18.966;2022-09-17T09:46:52;2.00;;;1.10;;
57889;SDS011;43707;50.184;18.966;2022-09-17T09:49:33;1.40;;;1.10;;
57889;SDS011;43707;50.184;18.966;2022-09-17T09:52:12;2.60;;;1.20;;
57889;SDS011;43707;50.184;18.966;2022-09-17T10:00:36;2.20;;;1.20;;
57889;SDS011;43707;50.184;18.966;2022-09-17T10:05:36;2.90;;;2.10;;
57889;SDS011;43707;50.184;18.966;2022-09-17T10:08:11;4.10;;;2.50;;
57889;SDS011;43707;50.184;18.966;2022-09-17T10:10:51;13.90;;;6.20;;
57889;SDS011;43707;50.184;18.966;2022-09-17T10:13:20;17.00;;;6.60;;
57889;SDS011;43707;50.184;18.966;2022-09-17T10:15:45;11.70;;;4.60;;
57889;SDS011;43707;50.184;18.966;2022-09-17T10:20:50;5.50;;;3.10;;
57889;SDS011;43707;50.184;18.966;2022-09-17T10:23:19;6.70;;;4.20;;
57889;SDS011;43707;50.184;18.966;2022-09-17T10:25:45;6.60;;;3.90;;
57889;SDS011;43707;50.184;18.966;2022-09-17T10:30:57;5.40;;;3.20;;
57889;SDS011;43707;50.184;18.966;2022-09-17T10:33:37;5.10;;;2.70;;
57889;SDS011;43707;50.184;18.966;2022-09-17T10:38:35;4.00;;;2.80;;
57889;SDS011;43707;50.184;18.966;2022-09-17T10:41:23;5.40;;;3.20;;
57889;SDS011;43707;50.184;18.966;2022-09-17T10:43:49;3.80;;;2.80;;
57889;SDS011;43707;50.184;18.966;2022-09-17T10:46:33;5.00;;;3.10;;
57889;SDS011;43707;50.184;18.966;2022-09-17T10:49:10;4.70;;;2.50;;
57889;SDS011;43707;50.184;18.966;2022-09-17T10:51:39;4.40;;;2.90;;
57889;SDS011;43707;50.184;18.966;2022-09-17T10:56:41;4.40;;;2.90;;
57889;SDS011;43707;50.184;18.966;2022-09-17T10:59:33;3.70;;;2.50;;
57889;SDS011;43707;50.184;18.966;2022-09-17T11:05:19;4.00;;;2.20;;
57889;SDS011;43707;50.184;18.966;2022-09-17T11:07:50;4.60;;;2.40;;
57889;SDS011;43707;50.184;18.966;2022-09-17T11:10:34;3.20;;;2.00;;
57889;SDS011;43707;50.184;18.966;2022-09-17T11:18:53;3.50;;;2.70;;
57889;SDS011;43707;50.184;18.966;2022-09-17T11:24:04;9.10;;;3.00;;
57889;SDS011;43707;50.184;18.966;2022-09-17T11:27:14;2.80;;;2.40;;
57889;SDS011;43707;50.184;18.966;2022-09-17T11:35:20;4.70;;;2.30;;
57889;SDS011;43707;50.184;18.966;2022-09-17T11:40:41;3.10;;;2.00;;
57889;SDS011;43707;50.184;18.966;2022-09-17T11:49:06;3.10;;;2.10;;
57889;SDS011;43707;50.184;18.966;2022-09-17T11:51:38;4.80;;;2.30;;
57889;SDS011;43707;50.184;18.966;2022-09-17T11:56:47;5.50;;;3.60;;
57889;SDS011;43707;50.184;18.966;2022-09-17T11:59:18;7.30;;;4.20;;
57889;SDS011;43707;50.184;18.966;2022-09-17T12:04:33;3.00;;;2.40;;
57889;SDS011;43707;50.184;18.966;2022-09-17T12:09:44;4.40;;;3.00;;
57889;SDS011;43707;50.184;18.966;2022-09-17T12:12:16;5.50;;;3.30;;
57889;SDS011;43707;50.184;18.966;2022-09-17T12:14:50;7.00;;;5.40;;
57889;SDS011;43707;50.184;18.966;2022-09-17T12:17:21;4.60;;;2.50;;
57889;SDS011;43707;50.184;18.966;2022-09-17T12:19:50;3.70;;;2.10;;
57889;SDS011;43707;50.184;18.966;2022-09-17T12:24:53;2.30;;;2.00;;
57889;SDS011;43707;50.184;18.966;2022-09-17T12:40:29;3.70;;;3.10;;
57889;SDS011;43707;50.184;18.966;2022-09-17T12:45:35;3.90;;;3.30;;
57889;SDS011;43707;50.184;18.966;2022-09-17T12:51:05;3.40;;;3.10;;
57889;SDS011;43707;50.184;18.966;2022-09-17T12:59:11;4.40;;;4.00;;
57889;SDS011;43707;50.184;18.966;2022-09-17T13:02:00;7.00;;;3.90;;
57889;SDS011;43707;50.184;18.966;2022-09-17T13:04:39;4.70;;;4.30;;
57889;SDS011;43707;50.184;18.966;2022-09-17T13:10:07;3.80;;;3.40;;
57889;SDS011;43707;50.184;18.966;2022-09-17T13:15:45;4.60;;;4.20;;
57889;SDS011;43707;50.184;18.966;2022-09-17T13:18:38;5.30;;;4.40;;
57889;SDS011;43707;50.184;18.966;2022-09-17T13:21:10;5.90;;;3.80;;
57889;SDS011;43707;50.184;18.966;2022-09-17T13:23:39;7.60;;;4.60;;
57889;SDS011;43707;50.184;18.966;2022-09-17T13:26:07;8.00;;;5.20;;
57889;SDS011;43707;50.184;18.966;2022-09-17T13:28:51;7.20;;;4.00;;
57889;SDS011;43707;50.184;18.966;2022-09-17T13:34:01;6.70;;;4.30;;
57889;SDS011;43707;50.184;18.966;2022-09-17T13:36:33;5.20;;;3.80;;
57889;SDS011;43707;50.184;18.966;2022-09-17T13:39:02;6.60;;;3.40;;
57889;SDS011;43707;50.184;18.966;2022-09-17T13:41:28;4.30;;;3.70;;
57889;SDS011;43707;50.184;18.966;2022-09-17T13:43:54;4.50;;;3.20;;
57889;SDS011;43707;50.184;18.966;2022-09-17T13:46:21;5.70;;;3.80;;
57889;SDS011;43707;50.184;18.966;2022-09-17T13:48:53;6.40;;;4.20;;
57889;SDS011;43707;50.184;18.966;2022-09-17T13:54:02;5.50;;;4.10;;
57889;SDS011;43707;50.184;18.966;2022-09-17T13:56:32;3.60;;;3.30;;
57889;SDS011;43707;50.184;18.966;2022-09-17T13:59:32;3.50;;;2.70;;
57889;SDS011;43707;50.184;18.966;2022-09-17T14:09:53;3.10;;;2.40;;
57889;SDS011;43707;50.184;18.966;2022-09-17T14:20:55;4.90;;;2.80;;
57889;SDS011;43707;50.184;18.966;2022-09-17T14:23:30;3.10;;;2.60;;
57889;SDS011;43707;50.184;18.966;2022-09-17T14:25:57;3.90;;;2.70;;
57889;SDS011;43707;50.184;18.966;2022-09-17T14:28:28;4.10;;;3.00;;
57889;SDS011;43707;50.184;18.966;2022-09-17T14:30:56;5.30;;;4.00;;
57889;SDS011;43707;50.184;18.966;2022-09-17T14:33:24;4.70;;;3.80;;
57889;SDS011;43707;50.184;18.966;2022-09-17T14:35:55;3.10;;;2.80;;
57889;SDS011;43707;50.184;18.966;2022-09-17T14:38:37;3.90;;;3.20;;
57889;SDS011;43707;50.184;18.966;2022-09-17T14:48:51;3.80;;;3.10;;
57889;SDS011;43707;50.184;18.966;2022-09-17T14:53:45;9.30;;;8.00;;
57889;SDS011;43707;50.184;18.966;2022-09-17T14:56:13;10.10;;;8.20;;
57889;SDS011;43707;50.184;18.966;2022-09-17T14:58:47;10.60;;;7.40;;
57889;SDS011;43707;50.184;18.966;2022-09-17T15:01:24;14.00;;;6.50;;
57889;SDS011;43707;50.184;18.966;2022-09-17T15:06:40;7.40;;;5.60;;
57889;SDS011;43707;50.184;18.966;2022-09-17T15:09:16;5.50;;;4.80;;
57889;SDS011;43707;50.184;18.966;2022-09-17T15:11:43;6.80;;;5.30;;
57889;SDS011;43707;50.184;18.966;2022-09-17T15:14:33;5.10;;;4.60;;
57889;SDS011;43707;50.184;18.966;2022-09-17T15:16:59;6.60;;;4.50;;
57889;SDS011;43707;50.184;18.966;2022-09-17T15:19:33;10.70;;;5.70;;
57889;SDS011;43707;50.184;18.966;2022-09-17T15:22:03;7.70;;;6.10;;
57889;SDS011;43707;50.184;18.966;2022-09-17T15:27:37;18.20;;;11.60;;
57889;SDS011;43707;50.184;18.966;2022-09-17T15:30:15;13.00;;;9.50;;
57889;SDS011;43707;50.184;18.966;2022-09-17T15:32:48;14.30;;;7.80;;
57889;SDS011;43707;50.184;18.966;2022-09-17T15:35:28;14.60;;;8.00;;
57889;SDS011;43707;50.184;18.966;2022-09-17T15:37:56;10.20;;;6.80;;
57889;SDS011;43707;50.184;18.966;2022-09-17T15:42:56;15.50;;;9.60;;
57889;SDS011;43707;50.184;18.966;2022-09-17T15:45:27;12.70;;;8.60;;
57889;SDS011;43707;50.184;18.966;2022-09-17T15:47:59;8.30;;;7.50;;
57889;SDS011;43707;50.184;18.966;2022-09-17T15:50:34;11.10;;;6.20;;
57889;SDS011;43707;50.184;18.966;2022-09-17T15:55:39;10.60;;;7.10;;
57889;SDS011;43707;50.184;18.966;2022-09-17T16:08:42;14.20;;;9.00;;
57889;SDS011;43707;50.184;18.966;2022-09-17T16:11:11;14.80;;;9.30;;
57889;SDS011;43707;50.184;18.966;2022-09-17T16:13:37;18.00;;;11.80;;
57889;SDS011;43707;50.184;18.966;2022-09-17T16:16:03;22.60;;;15.20;;
57889;SDS011;43707;50.184;18.966;2022-09-17T16:18:29;26.60;;;19.70;;
57889;SDS011;43707;50.184;18.966;2022-09-17T16:20:54;39.80;;;27.80;;
57889;SDS011;43707;50.184;18.966;2022-09-17T16:23:19;36.40;;;24.20;;
57889;SDS011;43707;50.184;18.966;2022-09-17T16:25:45;23.60;;;17.00;;
57889;SDS011;43707;50.184;18.966;2022-09-17T16:28:11;18.30;;;11.70;;
57889;SDS011;43707;50.184;18.966;2022-09-17T16:30:42;10.30;;;8.20;;
57889;SDS011;43707;50.184;18.966;2022-09-17T16:33:10;12.30;;;8.00;;
57889;SDS011;43707;50.184;18.966;2022-09-17T16:35:36;10.00;;;7.30;;
57889;SDS011;43707;50.184;18.966;2022-09-17T16:38:02;10.80;;;7.60;;
57889;SDS011;43707;50.184;18.966;2022-09-17T16:40:29;10.60;;;7.80;;
57889;SDS011;43707;50.184;18.966;2022-09-17T16:42:55;8.50;;;7.50;;
57889;SDS011;43707;50.184;18.966;2022-09-17T16:45:21;13.50;;;8.70;;
57889;SDS011;43707;50.184;18.966;2022-09-17T16:47:46;14.10;;;8.50;;
57889;SDS011;43707;50.184;18.966;2022-09-17T16:50:12;9.60;;;7.90;;
57889;SDS011;43707;50.184;18.966;2022-09-17T16:52:40;13.60;;;7.70;;
57889;SDS011;43707;50.184;18.966;2022-09-17T16:55:06;9.50;;;7.10;;
57889;SDS011;43707;50.184;18.966;2022-09-17T16:57:32;8.00;;;7.00;;
57889;SDS011;43707;50.184;18.966;2022-09-17T16:59:58;11.40;;;7.10;;
57889;SDS011;43707;50.184;18.966;2022-09-17T17:02:24;12.90;;;8.60;;
57889;SDS011;43707;50.184;18.966;2022-09-17T17:04:49;12.00;;;9.90;;
57889;SDS011;43707;50.184;18.966;2022-09-17T17:07:14;17.90;;;12.10;;
57889;SDS011;43707;50.184;18.966;2022-09-17T17:09:40;14.60;;;10.60;;
57889;SDS011;43707;50.184;18.966;2022-09-17T17:12:06;17.20;;;11.50;;
57889;SDS011;43707;50.184;18.966;2022-09-17T17:14:31;15.80;;;12.90;;
57889;SDS011;43707;50.184;18.966;2022-09-17T17:16:57;12.90;;;10.60;;
57889;SDS011;43707;50.184;18.966;2022-09-17T17:19:22;15.60;;;12.20;;
57889;SDS011;43707;50.184;18.966;2022-09-17T17:21:49;17.70;;;12.50;;
57889;SDS011;43707;50.184;18.966;2022-09-17T17:24:15;17.10;;;12.10;;
57889;SDS011;43707;50.184;18.966;2022-09-17T17:26:41;16.70;;;13.10;;
57889;SDS011;43707;50.184;18.966;2022-09-17T17:29:06;22.70;;;14.80;;
57889;SDS011;43707;50.184;18.966;2022-09-17T17:31:33;22.00;;;15.70;;
57889;SDS011;43707;50.184;18.966;2022-09-17T17:33:59;19.50;;;13.90;;
57889;SDS011;43707;50.184;18.966;2022-09-17T17:36:24;20.90;;;15.50;;
57889;SDS011;43707;50.184;18.966;2022-09-17T17:38:54;18.60;;;15.20;;
57889;SDS011;43707;50.184;18.966;2022-09-17T17:41:21;19.00;;;13.70;;
57889;SDS011;43707;50.184;18.966;2022-09-17T17:46:37;13.10;;;11.10;;
57889;SDS011;43707;50.184;18.966;2022-09-17T17:49:03;21.20;;;15.10;;
57889;SDS011;43707;50.184;18.966;2022-09-17T17:51:30;23.50;;;17.50;;
57889;SDS011;43707;50.184;18.966;2022-09-17T17:53:56;26.60;;;17.50;;
57889;SDS011;43707;50.184;18.966;2022-09-17T17:56:21;25.80;;;16.60;;
57889;SDS011;43707;50.184;18.966;2022-09-17T17:58:47;27.10;;;19.10;;
57889;SDS011;43707;50.184;18.966;2022-09-17T18:03:43;21.60;;;17.00;;
57889;SDS011;43707;50.184;18.966;2022-09-17T18:06:08;22.30;;;16.90;;